Time;durP1;ratioP1;P1;durP2;ratioP2;P2;SDS_P1;SDS_P2;PMS_P1;PMS_P2;Temp;Humidity;BMP_temperature;BMP_pressure;BME280_temperature;BME280_humidity;BME280_pressure;Samples;Min_cycle;Max_cycle;Signal;HPM_P1;HPM_P2
2021/09/06 00:01:42;;;;;;;10.45;7.95;;;17.40;74.40;;;;;;5070177;28;20029;-84
2021/09/06 00:04:08;;;;;;;11.05;8.50;;;17.40;74.60;;;;;;5086919;28;20038;-85
2021/09/06 00:06:39;;;;;;;11.38;8.32;;;17.30;74.60;;;;;;5084418;28;20040;-84
2021/09/06 00:09:05;;;;;;;12.07;8.68;;;17.30;74.70;;;;;;5067979;28;20396;-84
2021/09/06 00:11:30;;;;;;;11.63;8.27;;;17.30;74.80;;;;;;5066672;28;20024;-85
2021/09/06 00:13:56;;;;;;;11.07;8.68;;;17.20;74.90;;;;;;5065809;28;20032;-84
2021/09/06 00:16:21;;;;;;;13.15;9.00;;;17.20;74.90;;;;;;5084447;28;20024;-85
2021/09/06 00:18:47;;;;;;;12.27;8.98;;;17.20;75.10;;;;;;5067293;28;20020;-85
2021/09/06 00:21:13;;;;;;;13.02;8.43;;;17.20;75.10;;;;;;5085136;28;20032;-84
2021/09/06 00:23:38;;;;;;;12.40;8.73;;;17.20;75.20;;;;;;5083669;28;20020;-84
2021/09/06 00:26:04;;;;;;;12.88;9.32;;;17.20;75.30;;;;;;5083425;28;20020;-84
2021/09/06 00:28:30;;;;;;;13.50;8.95;;;17.20;75.30;;;;;;5065269;28;20395;-83
2021/09/06 00:30:56;;;;;;;11.73;8.73;;;17.10;75.40;;;;;;5066754;28;20027;-84
2021/09/06 00:33:22;;;;;;;12.95;9.02;;;17.10;75.50;;;;;;5066477;28;20052;-84
2021/09/06 00:35:48;;;;;;;12.35;8.52;;;17.10;75.50;;;;;;5064802;28;20024;-85
2021/09/06 00:38:16;;;;;;;12.23;8.80;;;17.10;75.60;;;;;;5080965;28;20476;-84
2021/09/06 00:40:44;;;;;;;13.55;9.35;;;17.10;75.70;;;;;;5062761;28;20063;-84
2021/09/06 00:43:10;;;;;;;12.95;9.07;;;17.10;75.70;;;;;;5062571;28;20027;-84
2021/09/06 00:45:37;;;;;;;13.90;9.30;;;17.00;75.70;;;;;;5062096;28;20016;-84
2021/09/06 00:48:03;;;;;;;14.35;9.13;;;17.00;75.80;;;;;;5062270;28;20024;-83
2021/09/06 00:50:29;;;;;;;14.13;9.25;;;17.00;75.90;;;;;;5095602;28;20396;-85
2021/09/06 00:52:55;;;;;;;12.60;8.98;;;17.00;75.90;;;;;;5061672;28;20027;-85
2021/09/06 00:55:21;;;;;;;13.68;9.45;;;17.00;76.00;;;;;;5060902;28;20020;-84
2021/09/06 00:57:47;;;;;;;12.15;8.85;;;17.00;76.00;;;;;;5061944;28;20024;-84
2021/09/06 01:00:16;;;;;;;12.90;9.48;;;17.00;76.10;;;;;;5061212;28;20081;-84
2021/09/06 01:02:43;;;;;;;14.32;9.93;;;16.90;76.10;;;;;;5059604;28;20527;-84
2021/09/06 01:05:10;;;;;;;13.30;9.48;;;16.90;76.10;;;;;;5059826;28;20028;-85
2021/09/06 01:07:35;;;;;;;12.70;9.00;;;16.90;76.20;;;;;;5059407;28;20047;-84
2021/09/06 01:10:08;;;;;;;15.40;9.68;;;16.90;76.20;;;;;;5094143;28;20068;-84
2021/09/06 01:12:35;;;;;;;14.65;9.05;;;16.80;76.30;;;;;;5061669;28;20033;-82
2021/09/06 01:15:00;;;;;;;14.82;10.20;;;16.90;76.40;;;;;;5059808;28;20036;-84
2021/09/06 01:17:27;;;;;;;13.20;9.65;;;16.90;76.40;;;;;;5078690;28;20021;-84
2021/09/06 01:19:53;;;;;;;15.13;9.82;;;16.80;76.40;;;;;;5059739;28;20021;-84
2021/09/06 01:22:19;;;;;;;12.75;9.98;;;16.80;76.40;;;;;;5076320;28;20100;-84
2021/09/06 01:24:46;;;;;;;16.20;10.35;;;16.80;76.50;;;;;;5075253;28;20044;-84
2021/09/06 01:27:13;;;;;;;14.57;10.18;;;16.80;77.20;;;;;;5058549;28;20480;-84
2021/09/06 01:29:39;;;;;;;14.27;10.02;;;16.70;76.50;;;;;;5061163;28;20035;-85
2021/09/06 01:32:05;;;;;;;14.77;10.18;;;16.70;76.60;;;;;;5063196;28;20017;-84
2021/09/06 01:34:31;;;;;;;13.50;9.55;;;16.70;76.60;;;;;;5062732;28;20060;-84
2021/09/06 01:36:57;;;;;;;12.82;9.70;;;16.70;76.60;;;;;;5063019;28;20029;-84
2021/09/06 01:39:22;;;;;;;13.73;9.55;;;16.70;76.70;;;;;;5082269;28;20365;-84
2021/09/06 01:41:48;;;;;;;15.57;10.55;;;16.70;76.70;;;;;;5082631;28;20071;-84
2021/09/06 01:44:14;;;;;;;12.95;10.05;;;16.70;76.80;;;;;;5064189;28;20501;-84
2021/09/06 01:46:39;;;;;;;13.00;9.63;;;16.60;76.80;;;;;;5063412;28;20101;-84
2021/09/06 01:49:05;;;;;;;14.43;9.95;;;16.60;76.80;;;;;;5080983;28;20033;-84
2021/09/06 01:51:31;;;;;;;13.25;9.85;;;16.60;76.80;;;;;;5062287;28;20029;-84
2021/09/06 01:53:57;;;;;;;13.57;9.50;;;16.50;76.90;;;;;;5062849;28;20025;-84
2021/09/06 01:56:23;;;;;;;14.05;9.90;;;16.60;77.00;;;;;;5063689;28;20056;-85
2021/09/06 01:58:48;;;;;;;13.82;9.60;;;16.50;77.00;;;;;;5062817;28;20035;-85
2021/09/06 02:04:36;;;;;;;13.18;9.40;;;16.50;77.10;;;;;;5079862;28;20166;-84
2021/09/06 02:07:01;;;;;;;15.82;10.63;;;16.40;77.00;;;;;;5079738;28;20056;-84
2021/09/06 02:09:27;;;;;;;11.70;9.35;;;16.40;77.20;;;;;;5063093;28;20024;-85
2021/09/06 02:11:53;;;;;;;11.63;9.27;;;16.40;77.20;;;;;;5063008;28;20025;-84
2021/09/06 02:14:18;;;;;;;14.10;9.93;;;16.40;77.20;;;;;;5061176;28;20024;-85
2021/09/06 02:16:44;;;;;;;15.10;10.27;;;16.40;77.30;;;;;;5060789;28;20025;-84
2021/09/06 02:19:09;;;;;;;13.95;9.88;;;16.30;77.30;;;;;;5061407;28;20434;-82
2021/09/06 02:21:35;;;;;;;13.13;9.55;;;16.30;77.40;;;;;;5061672;28;20112;-84
2021/09/06 02:24:02;;;;;;;12.55;9.07;;;16.30;77.40;;;;;;5061226;28;20112;-84
2021/09/06 02:26:29;;;;;;;12.85;9.60;;;16.30;77.50;;;;;;5060610;28;20115;-84
2021/09/06 02:28:54;;;;;;;13.30;9.02;;;16.30;77.50;;;;;;5061600;28;20396;-85
2021/09/06 02:31:20;;;;;;;12.07;9.65;;;16.20;77.50;;;;;;5080410;28;20029;-84
2021/09/06 02:33:46;;;;;;;13.30;9.00;;;16.20;77.60;;;;;;5061223;28;20078;-84
2021/09/06 02:36:11;;;;;;;13.98;10.00;;;16.20;77.70;;;;;;5060955;28;20021;-84
2021/09/06 02:38:37;;;;;;;13.30;9.45;;;16.20;77.70;;;;;;5060983;28;20123;-83
2021/09/06 02:41:03;;;;;;;14.82;10.27;;;16.20;77.80;;;;;;5078774;28;20091;-84
2021/09/06 02:43:28;;;;;;;14.98;10.25;;;16.20;77.80;;;;;;5079475;28;20056;-84
2021/09/06 02:45:54;;;;;;;15.32;9.77;;;16.10;77.90;;;;;;5079569;28;20021;-82
2021/09/06 02:48:20;;;;;;;14.98;9.82;;;16.10;77.90;;;;;;5078910;28;20039;-84
2021/09/06 02:50:45;;;;;;;15.43;10.40;;;16.10;78.00;;;;;;5060837;28;20352;-84
2021/09/06 02:53:11;;;;;;;14.48;10.52;;;16.10;78.00;;;;;;5078783;28;20024;-84
2021/09/06 02:55:37;;;;;;;14.32;9.57;;;16.00;78.00;;;;;;5078648;28;20029;-83
2021/09/06 02:58:05;;;;;;;14.73;9.75;;;16.00;78.10;;;;;;5060771;28;20468;-83
2021/09/06 03:00:31;;;;;;;13.85;9.73;;;16.00;78.20;;;;;;5077825;28;20357;-84
2021/09/06 03:02:56;;;;;;;15.27;9.95;;;16.00;78.20;;;;;;5059573;28;20035;-84
2021/09/06 03:05:22;;;;;;;13.48;9.57;;;16.00;78.20;;;;;;5060589;28;20062;-83
2021/09/06 03:07:48;;;;;;;13.35;10.00;;;16.00;78.30;;;;;;5061402;28;20096;-84
2021/09/06 03:10:13;;;;;;;14.20;9.50;;;16.00;78.30;;;;;;5060527;28;20410;-84
2021/09/06 03:12:39;;;;;;;13.38;9.52;;;16.00;78.40;;;;;;5078536;28;20025;-84
2021/09/06 03:15:05;;;;;;;13.95;9.93;;;16.00;78.40;;;;;;5059532;28;20066;-84
2021/09/06 03:17:30;;;;;;;15.10;9.65;;;16.00;78.40;;;;;;5059836;28;20021;-84
2021/09/06 03:19:56;;;;;;;12.30;9.50;;;16.00;78.40;;;;;;5060365;28;20020;-84
2021/09/06 03:22:22;;;;;;;14.77;10.00;;;16.00;78.40;;;;;;5078747;28;20035;-84
2021/09/06 03:24:47;;;;;;;13.35;9.90;;;15.90;78.40;;;;;;5078390;28;20072;-84
2021/09/06 03:27:14;;;;;;;13.73;9.88;;;15.90;78.40;;;;;;5060440;28;20020;-83
2021/09/06 03:29:39;;;;;;;12.85;9.10;;;15.90;78.50;;;;;;5078958;28;20048;-83
2021/09/06 03:32:05;;;;;;;12.55;9.30;;;15.90;78.50;;;;;;5061050;28;20017;-83
2021/09/06 03:34:31;;;;;;;15.10;9.80;;;15.80;78.50;;;;;;5059537;28;20044;-83
2021/09/06 03:36:56;;;;;;;13.50;9.50;;;15.80;78.60;;;;;;5059794;28;20434;-83
2021/09/06 03:39:22;;;;;;;13.48;10.10;;;15.80;78.60;;;;;;5077390;28;20024;-84
2021/09/06 03:41:48;;;;;;;14.65;9.48;;;15.80;78.70;;;;;;5060355;28;20586;-84
2021/09/06 03:44:14;;;;;;;16.02;10.10;;;15.70;78.70;;;;;;5060385;28;20126;-83
2021/09/06 03:46:39;;;;;;;15.02;10.05;;;15.70;78.80;;;;;;5060390;28;20013;-83
2021/09/06 03:49:05;;;;;;;11.93;9.13;;;15.70;78.80;;;;;;5060115;28;20531;-84
2021/09/06 03:51:31;;;;;;;13.65;9.80;;;15.70;78.80;;;;;;5058535;28;20028;-82
2021/09/06 03:53:56;;;;;;;12.30;9.98;;;15.70;78.90;;;;;;5059939;28;20032;-84
2021/09/06 03:56:25;;;;;;;14.57;9.70;;;15.70;78.90;;;;;;5077108;28;20070;-84
2021/09/06 03:58:51;;;;;;;14.65;10.23;;;15.70;79.00;;;;;;5059065;28;20021;-84
2021/09/06 04:01:16;;;;;;;13.98;9.40;;;15.60;78.90;;;;;;5059109;28;20093;-84
2021/09/06 04:07:04;;;;;;;12.88;9.25;;;15.60;79.20;;;;;;5077764;28;20074;-83
2021/09/06 04:09:30;;;;;;;13.43;9.85;;;15.60;79.10;;;;;;5058537;28;20024;-83
2021/09/06 04:11:55;;;;;;;14.55;9.70;;;15.60;79.20;;;;;;5076028;28;20080;-83
2021/09/06 04:14:23;;;;;;;16.02;10.18;;;15.60;79.20;;;;;;5075423;28;20031;-84
2021/09/06 04:16:49;;;;;;;13.60;9.82;;;15.50;79.20;;;;;;5075492;28;20100;-84
2021/09/06 04:19:15;;;;;;;13.85;9.90;;;15.50;79.30;;;;;;5075087;28;20029;-84
2021/09/06 04:21:40;;;;;;;13.68;9.32;;;15.50;79.40;;;;;;5054438;28;20025;-84
2021/09/06 04:24:06;;;;;;;14.23;10.00;;;15.50;79.40;;;;;;5056674;28;20017;-86
2021/09/06 04:26:32;;;;;;;15.20;10.07;;;15.40;79.40;;;;;;5054900;28;20029;-85
2021/09/06 04:28:57;;;;;;;13.23;9.13;;;15.40;79.40;;;;;;5057645;28;20384;-83
2021/09/06 04:31:23;;;;;;;14.90;9.70;;;15.40;79.40;;;;;;5057614;28;20094;-85
2021/09/06 04:33:49;;;;;;;12.93;8.98;;;15.30;79.50;;;;;;5072602;28;20053;-84
2021/09/06 04:36:15;;;;;;;12.60;9.40;;;15.30;79.60;;;;;;5056914;28;20052;-84
2021/09/06 04:38:41;;;;;;;15.00;9.95;;;15.30;79.70;;;;;;5075159;28;20047;-85
2021/09/06 04:44:29;;;;;;;13.27;9.85;;;15.30;79.80;;;;;;5075312;28;20537;-84
2021/09/06 04:46:56;;;;;;;13.50;9.43;;;15.30;79.80;;;;;;5057072;28;20054;-84
2021/09/06 04:49:22;;;;;;;11.15;8.65;;;15.30;80.40;;;;;;5075660;28;20086;-86
2021/09/06 04:51:47;;;;;;;12.85;9.27;;;15.30;79.80;;;;;;5057791;28;20107;-86
2021/09/06 04:54:14;;;;;;;11.57;9.25;;;15.30;79.80;;;;;;5058602;28;20031;-85
2021/09/06 04:56:40;;;;;;;13.60;9.65;;;15.30;79.90;;;;;;5075704;28;20017;-86
2021/09/06 04:59:05;;;;;;;15.80;9.93;;;15.30;79.90;;;;;;5058269;28;20119;-84
2021/09/06 05:04:53;;;;;;;15.73;10.60;;;15.20;79.90;;;;;;5075539;28;20035;-84
2021/09/06 05:07:19;;;;;;;15.10;9.80;;;15.30;79.90;;;;;;5075030;28;20341;-84
2021/09/06 05:09:44;;;;;;;14.82;9.85;;;15.20;79.90;;;;;;5056932;28;20024;-83
2021/09/06 05:12:10;;;;;;;15.70;9.82;;;15.20;80.00;;;;;;5087852;28;20025;-85
2021/09/06 05:14:36;;;;;;;15.45;10.75;;;15.20;80.00;;;;;;5057706;28;20025;-84
2021/09/06 05:17:01;;;;;;;15.23;10.20;;;15.30;80.10;;;;;;5074885;28;20024;-85
2021/09/06 05:19:27;;;;;;;16.45;10.82;;;15.20;80.10;;;;;;5058593;28;20029;-85
2021/09/06 05:21:52;;;;;;;13.98;10.57;;;15.20;80.10;;;;;;5057669;28;20431;-84
2021/09/06 05:24:18;;;;;;;14.57;10.75;;;15.20;80.10;;;;;;5056301;28;20107;-85
2021/09/06 05:26:44;;;;;;;14.98;10.48;;;15.20;80.10;;;;;;5056346;28;20524;-84
2021/09/06 05:29:09;;;;;;;13.77;10.20;;;15.20;80.10;;;;;;5076236;28;20028;-85
2021/09/06 05:31:35;;;;;;;15.20;10.57;;;15.20;80.10;;;;;;5059582;28;20024;-84
2021/09/06 05:34:00;;;;;;;14.90;9.90;;;15.20;80.10;;;;;;5075968;28;20056;-84
2021/09/06 05:36:26;;;;;;;15.55;10.98;;;15.30;80.10;;;;;;5076659;28;20058;-85
2021/09/06 05:38:51;;;;;;;15.23;10.55;;;15.20;80.10;;;;;;5057476;28;20491;-85
2021/09/06 05:41:20;;;;;;;16.55;10.52;;;15.20;80.10;;;;;;5058523;28;20117;-85
2021/09/06 05:43:47;;;;;;;14.98;10.60;;;15.20;80.10;;;;;;5058291;28;20498;-84
2021/09/06 05:46:13;;;;;;;15.20;10.02;;;15.20;80.10;;;;;;5057524;28;20389;-84
2021/09/06 05:48:38;;;;;;;14.07;10.30;;;15.30;80.10;;;;;;5058708;28;20041;-84
2021/09/06 05:51:04;;;;;;;18.17;11.23;;;15.30;80.00;;;;;;5058330;28;20035;-84
2021/09/06 05:53:29;;;;;;;16.70;11.18;;;15.30;80.10;;;;;;5058414;28;20043;-85
2021/09/06 05:55:55;;;;;;;13.32;10.73;;;15.30;80.00;;;;;;5058144;28;20107;-85
2021/09/06 05:58:20;;;;;;;15.68;11.20;;;15.40;80.10;;;;;;5057932;28;20032;-85
2021/09/06 06:00:46;;;;;;;15.68;10.82;;;15.40;80.10;;;;;;5057477;28;20016;-84
2021/09/06 06:03:12;;;;;;;15.27;10.57;;;15.50;80.10;;;;;;5055747;28;20400;-83
2021/09/06 06:05:37;;;;;;;16.85;11.18;;;15.50;80.10;;;;;;5056581;28;20025;-84
2021/09/06 06:08:03;;;;;;;19.67;11.50;;;15.50;80.10;;;;;;5056970;28;20031;-84
2021/09/06 06:10:29;;;;;;;16.30;11.63;;;15.60;80.10;;;;;;5056490;28;20016;-84
2021/09/06 06:12:54;;;;;;;14.93;11.15;;;15.60;80.10;;;;;;5057174;28;20016;-83
2021/09/06 06:15:20;;;;;;;15.35;11.15;;;15.70;80.10;;;;;;5058681;28;20029;-84
2021/09/06 06:17:45;;;;;;;17.50;11.35;;;15.70;80.00;;;;;;5061706;28;20027;-83
2021/09/06 06:20:12;;;;;;;16.30;11.25;;;15.80;80.70;;;;;;5061588;28;20028;-83
2021/09/06 06:22:37;;;;;;;17.63;12.02;;;15.80;80.10;;;;;;5059750;28;20013;-83
2021/09/06 06:25:04;;;;;;;15.68;11.25;;;15.90;80.10;;;;;;5059504;28;20017;-84
2021/09/06 06:27:29;;;;;;;18.25;12.02;;;16.00;80.10;;;;;;5059090;28;20536;-84
2021/09/06 06:29:55;;;;;;;19.35;11.27;;;16.00;80.00;;;;;;5059666;28;20113;-84
2021/09/06 06:32:20;;;;;;;17.20;11.40;;;16.10;80.00;;;;;;5059989;28;20028;-84
2021/09/06 06:34:46;;;;;;;16.42;12.25;;;16.10;80.00;;;;;;5059179;28;20048;-83
2021/09/06 06:37:12;;;;;;;15.70;11.23;;;16.20;80.00;;;;;;5077519;28;20099;-84
2021/09/06 06:39:37;;;;;;;19.15;11.02;;;16.30;80.00;;;;;;5060274;28;20039;-84
2021/09/06 06:42:03;;;;;;;18.23;12.15;;;16.30;79.90;;;;;;5077276;28;20158;-84
2021/09/06 06:44:29;;;;;;;16.88;11.38;;;16.40;79.90;;;;;;5059211;28;20074;-84
2021/09/06 06:46:54;;;;;;;15.70;10.77;;;16.40;79.80;;;;;;5076151;28;20024;-83
2021/09/06 06:49:20;;;;;;;16.73;11.23;;;16.50;79.80;;;;;;5058476;28;20032;-84
2021/09/06 06:55:08;;;;;;;19.88;11.30;;;16.70;79.70;;;;;;5076971;28;20139;-84
2021/09/06 06:57:33;;;;;;;16.95;11.00;;;16.70;79.50;;;;;;5059182;28;20043;-84
2021/09/06 06:59:59;;;;;;;16.73;11.35;;;16.80;79.40;;;;;;5059870;28;20033;-84
2021/09/06 07:02:24;;;;;;;15.60;11.02;;;16.90;79.40;;;;;;5058573;28;20026;-83
2021/09/06 07:04:54;;;;;;;15.10;10.40;;;16.90;79.30;;;;;;5058996;28;20020;-84
2021/09/06 07:07:19;;;;;;;14.75;9.93;;;17.00;79.30;;;;;;5077852;28;20027;-85
2021/09/06 07:09:45;;;;;;;14.60;10.70;;;17.00;79.20;;;;;;5090972;28;20473;-84
2021/09/06 07:12:11;;;;;;;15.25;10.80;;;17.10;79.20;;;;;;5060037;28;20115;-84
2021/09/06 07:14:36;;;;;;;16.00;10.63;;;17.10;79.10;;;;;;5059750;28;20468;-85
2021/09/06 07:17:02;;;;;;;16.58;9.85;;;17.30;79.10;;;;;;5076856;28;20051;-84
2021/09/06 07:19:28;;;;;;;13.45;10.25;;;17.30;78.90;;;;;;5076472;28;20090;-84
2021/09/06 07:21:54;;;;;;;16.67;11.23;;;17.40;78.90;;;;;;5076594;28;20024;-84
2021/09/06 07:24:19;;;;;;;15.18;11.07;;;17.40;79.40;;;;;;5058578;28;20050;-85
2021/09/06 07:26:45;;;;;;;15.27;10.63;;;17.40;78.70;;;;;;5057993;28;20036;-84
2021/09/06 07:29:11;;;;;;;15.65;10.20;;;17.50;78.60;;;;;;5059523;28;20029;-84
2021/09/06 07:31:36;;;;;;;13.63;10.40;;;17.60;78.50;;;;;;5076162;28;20104;-84
2021/09/06 07:34:02;;;;;;;15.82;10.65;;;17.60;78.40;;;;;;5076004;28;20059;-85
2021/09/06 07:36:27;;;;;;;12.95;9.85;;;17.70;78.40;;;;;;5058832;28;20048;-84
2021/09/06 07:38:53;;;;;;;14.18;10.73;;;17.80;78.30;;;;;;5077115;28;20474;-84
2021/09/06 07:41:21;;;;;;;14.85;10.70;;;17.90;78.30;;;;;;5058655;28;20043;-84
2021/09/06 07:43:47;;;;;;;15.23;10.75;;;17.90;78.10;;;;;;5059220;28;20023;-85
2021/09/06 07:46:13;;;;;;;14.05;9.95;;;18.00;78.10;;;;;;5059880;28;20042;-85
2021/09/06 07:48:39;;;;;;;15.30;9.77;;;18.00;78.00;;;;;;5060078;28;20024;-85
2021/09/06 07:51:04;;;;;;;16.08;10.57;;;18.10;77.90;;;;;;5060150;28;20028;-84
2021/09/06 07:53:30;;;;;;;13.55;10.13;;;18.20;77.90;;;;;;5060796;28;20475;-84
2021/09/06 07:55:56;;;;;;;13.80;10.45;;;18.30;77.80;;;;;;5077380;28;20476;-84
2021/09/06 07:58:21;;;;;;;16.15;10.85;;;18.30;77.60;;;;;;5059417;28;20036;-85
2021/09/06 08:00:47;;;;;;;14.52;10.32;;;18.40;77.60;;;;;;5060942;28;20022;-84
2021/09/06 08:03:13;;;;;;;13.55;9.90;;;18.40;77.40;;;;;;5076829;28;20020;-83
2021/09/06 08:05:39;;;;;;;12.95;9.43;;;18.50;77.40;;;;;;5059988;28;20107;-84
2021/09/06 08:08:05;;;;;;;12.82;9.95;;;18.60;77.30;;;;;;5059800;28;20048;-84
2021/09/06 08:10:30;;;;;;;14.85;10.07;;;18.60;77.20;;;;;;5059614;28;20058;-84
2021/09/06 08:12:56;;;;;;;14.27;9.88;;;18.70;77.10;;;;;;5077774;28;20066;-84
2021/09/06 08:15:22;;;;;;;13.75;9.13;;;18.80;77.00;;;;;;5058857;28;20460;-84
2021/09/06 08:17:48;;;;;;;12.93;9.50;;;18.80;77.00;;;;;;5058808;28;20412;-84
2021/09/06 08:20:16;;;;;;;15.00;9.98;;;18.90;76.90;;;;;;5058593;28;20040;-84
2021/09/06 08:22:43;;;;;;;10.77;8.48;;;19.00;76.80;;;;;;5058232;28;20023;-84
2021/09/06 08:25:12;;;;;;;11.98;8.50;;;19.00;76.70;;;;;;5075525;28;20400;-84
2021/09/06 08:27:39;;;;;;;12.95;9.40;;;19.10;76.70;;;;;;5059206;28;20031;-85
2021/09/06 08:30:06;;;;;;;12.35;9.18;;;19.20;76.60;;;;;;5059451;28;20107;-84
2021/09/06 08:32:33;;;;;;;11.93;9.10;;;19.20;76.60;;;;;;5076909;28;20585;-83
2021/09/06 08:34:58;;;;;;;13.30;9.95;;;19.30;76.50;;;;;;5077430;28;20063;-84
2021/09/06 08:37:24;;;;;;;11.10;8.90;;;19.30;76.30;;;;;;5058863;28;20028;-84
2021/09/06 08:39:50;;;;;;;12.98;8.70;;;19.40;76.30;;;;;;5077233;28;20088;-84
2021/09/06 08:42:16;;;;;;;11.80;9.30;;;19.40;76.10;;;;;;5077163;28;20024;-83
2021/09/06 08:44:42;;;;;;;11.20;8.52;;;19.50;76.10;;;;;;5077154;28;20032;-83
2021/09/06 08:47:08;;;;;;;13.68;9.70;;;19.50;75.90;;;;;;5076787;28;20024;-83
2021/09/06 08:49:34;;;;;;;15.00;9.75;;;19.60;75.80;;;;;;5059403;28;20032;-84
2021/09/06 08:52:00;;;;;;;10.95;8.57;;;19.60;75.60;;;;;;5093972;28;20020;-84
2021/09/06 08:54:26;;;;;;;10.98;8.85;;;19.70;75.60;;;;;;5073606;28;20504;-85
2021/09/06 08:56:53;;;;;;;11.90;8.07;;;19.80;75.40;;;;;;5077466;28;20472;-85
2021/09/06 08:59:20;;;;;;;12.43;8.60;;;19.90;75.40;;;;;;5094694;28;20028;-84
2021/09/06 09:01:51;;;;;;;11.82;8.27;;;19.90;75.20;;;;;;5078188;28;20023;-84
2021/09/06 09:04:18;;;;;;;12.23;8.77;;;20.00;75.20;;;;;;5060433;28;20052;-83
2021/09/06 09:06:52;;;;;;;10.75;8.35;;;20.10;75.00;;;;;;5080733;28;20020;-84
2021/09/06 09:09:33;;;;;;;12.93;8.98;;;20.20;74.90;;;;;;5061900;28;20097;-84
2021/09/06 09:12:09;;;;;;;12.95;9.60;;;20.30;74.70;;;;;;5080051;28;20387;-84
2021/09/06 09:14:38;;;;;;;11.85;8.63;;;20.30;74.50;;;;;;5061794;28;20020;-84
2021/09/06 09:17:04;;;;;;;11.13;8.77;;;20.30;74.30;;;;;;5096669;28;20021;-82
2021/09/06 09:19:30;;;;;;;12.55;8.82;;;20.40;74.20;;;;;;5062126;28;20027;-85
2021/09/06 09:21:57;;;;;;;11.88;7.82;;;20.30;74.00;;;;;;5064753;28;20017;-83
2021/09/06 09:24:24;;;;;;;11.15;8.48;;;20.40;74.00;;;;;;5064146;28;20024;-84
2021/09/06 09:27:01;;;;;;;10.80;7.93;;;20.40;74.00;;;;;;5082210;28;20012;-85
2021/09/06 09:29:28;;;;;;;10.65;7.57;;;20.50;73.90;;;;;;5063683;28;20024;-85
2021/09/06 09:31:56;;;;;;;11.88;8.82;;;20.50;73.70;;;;;;5094165;28;20024;-83
2021/09/06 09:34:21;;;;;;;11.80;8.07;;;20.60;73.60;;;;;;5095562;28;20069;-84
2021/09/06 09:36:47;;;;;;;11.57;7.72;;;20.60;73.50;;;;;;5080730;28;20060;-83
2021/09/06 09:39:16;;;;;;;10.18;8.10;;;20.70;73.40;;;;;;5063323;28;20115;-84
2021/09/06 09:41:46;;;;;;;10.80;7.90;;;20.70;73.30;;;;;;5079288;28;20028;-85
2021/09/06 09:44:21;;;;;;;12.15;7.88;;;20.80;73.20;;;;;;5061295;28;20017;-85
2021/09/06 09:46:57;;;;;;;9.93;7.80;;;20.80;73.00;;;;;;5060789;28;20107;-84
2021/09/06 09:49:25;;;;;;;12.07;8.52;;;20.90;72.90;;;;;;5062076;28;20025;-84
2021/09/06 09:51:52;;;;;;;11.02;7.18;;;20.90;72.80;;;;;;5098981;28;20017;-85
2021/09/06 09:54:18;;;;;;;7.68;6.05;;;21.00;72.50;;;;;;5063953;28;20024;-85
2021/09/06 09:56:46;;;;;;;9.73;6.82;;;21.00;71.60;;;;;;5064852;28;20025;-85
2021/09/06 10:02:37;;;;;;;8.18;5.90;;;21.00;69.70;;;;;;5082957;28;20085;-84
2021/09/06 10:05:05;;;;;;;10.45;6.00;;;21.00;69.50;;;;;;5063080;28;20021;-85
2021/09/06 10:07:33;;;;;;;8.98;5.65;;;21.00;69.10;;;;;;5080164;28;20056;-83
2021/09/06 10:10:18;;;;;;;7.30;5.32;;;21.10;68.70;;;;;;5061261;28;20127;-84
2021/09/06 10:13:05;;;;;;;9.35;6.13;;;21.20;68.20;;;;;;5061796;28;20024;-84
2021/09/06 10:15:32;;;;;;;8.77;6.50;;;21.30;68.00;;;;;;5051857;28;20039;-84
2021/09/06 10:18:01;;;;;;;8.60;5.93;;;21.30;67.60;;;;;;5062387;28;20047;-85
2021/09/06 10:20:27;;;;;;;8.98;6.20;;;21.40;67.30;;;;;;5061952;28;20117;-86
2021/09/06 10:23:08;;;;;;;7.20;5.50;;;21.50;67.20;;;;;;5080925;28;20488;-86
2021/09/06 10:25:36;;;;;;;8.50;5.95;;;21.50;67.00;;;;;;5062353;28;20017;-85
2021/09/06 10:28:04;;;;;;;8.25;5.95;;;21.60;67.00;;;;;;5062440;28;20481;-85
2021/09/06 10:30:53;;;;;;;6.78;5.55;;;21.70;66.80;;;;;;5060580;28;20021;-85
2021/09/06 10:33:31;;;;;;;6.15;5.45;;;21.80;66.00;;;;;;5060308;28;20526;-85
2021/09/06 10:36:03;;;;;;;6.38;5.45;;;21.80;65.60;;;;;;5057628;28;20066;-85
2021/09/06 10:38:46;;;;;;;6.22;5.22;;;21.90;64.90;;;;;;5078183;28;20111;-85
2021/09/06 10:41:21;;;;;;;7.22;5.60;;;21.90;64.50;;;;;;5060300;28;20120;-85
2021/09/06 10:43:59;;;;;;;8.57;5.60;;;22.00;64.00;;;;;;5060480;28;20020;-85
2021/09/06 10:46:27;;;;;;;7.80;5.32;;;22.10;63.60;;;;;;5060551;28;20039;-86
2021/09/06 10:48:53;;;;;;;6.68;5.53;;;22.20;63.30;;;;;;5060841;28;20016;-85
2021/09/06 10:51:26;;;;;;;7.95;6.20;;;22.20;62.70;;;;;;5060526;28;20032;-86
2021/09/06 10:54:00;;;;;;;8.85;5.60;;;22.20;62.50;;;;;;5094052;28;20027;-86
2021/09/06 10:56:27;;;;;;;7.90;5.38;;;22.20;62.20;;;;;;5059600;28;20119;-85
2021/09/06 10:58:54;;;;;;;8.27;5.18;;;22.30;62.30;;;;;;5059368;28;20112;-83
2021/09/06 11:01:20;;;;;;;7.45;5.57;;;22.30;62.20;;;;;;5060505;28;20020;-86
2021/09/06 11:03:46;;;;;;;6.32;4.82;;;22.40;62.00;;;;;;5079588;28;20021;-84
2021/09/06 11:06:13;;;;;;;5.68;4.40;;;22.40;61.80;;;;;;5076247;28;20025;-85
2021/09/06 11:08:39;;;;;;;6.38;4.97;;;22.40;61.50;;;;;;5079536;28;20025;-83
2021/09/06 11:11:07;;;;;;;5.47;4.57;;;22.50;61.20;;;;;;5078607;28;20024;-85
2021/09/06 11:13:46;;;;;;;6.05;4.80;;;22.50;60.80;;;;;;5079114;28;20024;-85
2021/09/06 11:16:14;;;;;;;5.80;4.43;;;22.50;60.60;;;;;;5060738;28;20036;-84
2021/09/06 11:18:43;;;;;;;7.20;4.90;;;22.60;60.40;;;;;;5093938;28;20036;-85
2021/09/06 11:21:09;;;;;;;5.50;4.45;;;22.70;60.10;;;;;;5094494;28;20024;-85
2021/09/06 11:23:36;;;;;;;6.22;4.47;;;22.70;59.70;;;;;;5079495;28;20108;-84
2021/09/06 11:26:04;;;;;;;6.50;4.80;;;22.70;59.20;;;;;;5060329;28;20044;-85
2021/09/06 11:28:30;;;;;;;6.30;4.80;;;22.70;59.00;;;;;;5060560;28;20438;-86
2021/09/06 11:30:56;;;;;;;4.80;4.28;;;22.80;59.00;;;;;;5058914;28;20025;-86
2021/09/06 11:33:22;;;;;;;5.47;4.20;;;22.80;58.70;;;;;;5058496;28;20051;-86
2021/09/06 11:35:49;;;;;;;5.00;4.50;;;22.80;58.60;;;;;;5076140;28;20033;-86
2021/09/06 11:38:15;;;;;;;5.22;4.45;;;22.90;58.40;;;;;;5091903;28;20389;-86
2021/09/06 11:40:48;;;;;;;6.68;4.70;;;23.00;58.40;;;;;;5059123;28;20088;-86
2021/09/06 11:43:14;;;;;;;6.85;4.57;;;23.10;58.30;;;;;;5077373;28;20046;-87
2021/09/06 11:45:40;;;;;;;5.55;4.55;;;23.20;58.40;;;;;;5058502;28;20091;-85
2021/09/06 11:48:07;;;;;;;5.43;4.18;;;23.40;58.40;;;;;;5059498;28;20024;-85
2021/09/06 11:50:35;;;;;;;6.82;4.88;;;23.50;58.20;;;;;;5075816;28;20086;-86
2021/09/06 11:53:07;;;;;;;6.68;4.80;;;23.70;58.00;;;;;;5058216;28;20033;-86
2021/09/06 11:55:33;;;;;;;6.85;5.32;;;23.90;57.50;;;;;;5090908;28;20111;-86
2021/09/06 11:58:12;;;;;;;5.85;4.95;;;23.90;57.30;;;;;;5058457;28;20029;-86
2021/09/06 12:00:40;;;;;;;6.93;5.30;;;24.10;56.90;;;;;;5057648;28;20484;-86
2021/09/06 12:03:08;;;;;;;7.38;5.47;;;24.10;56.50;;;;;;5075448;28;20116;-86
2021/09/06 12:05:39;;;;;;;5.53;4.78;;;24.20;56.20;;;;;;5091396;28;20055;-86
2021/09/06 12:08:11;;;;;;;6.70;5.00;;;24.30;55.70;;;;;;5057628;28;20029;-83
2021/09/06 12:10:37;;;;;;;6.47;5.28;;;24.30;55.40;;;;;;5056739;28;20036;-84
2021/09/06 12:13:08;;;;;;;7.15;5.97;;;24.30;55.00;;;;;;5089883;28;20029;-84
2021/09/06 12:15:50;;;;;;;7.65;5.85;;;24.40;54.60;;;;;;5057228;28;20115;-84
2021/09/06 12:19:05;;;;;;;7.13;5.30;;;24.50;54.20;;;;;;5091038;28;20032;-86
2021/09/06 12:21:42;;;;;;;5.95;5.03;;;24.60;54.30;;;;;;5057125;28;20507;-86
2021/09/06 12:24:10;;;;;;;7.43;5.80;;;24.70;54.10;;;;;;5090850;28;20017;-85
2021/09/06 12:26:47;;;;;;;6.88;5.63;;;24.80;53.70;;;;;;5057304;28;20070;-85
2021/09/06 12:29:24;;;;;;;6.63;5.40;;;24.90;53.40;;;;;;5088213;28;20036;-85
2021/09/06 12:31:52;;;;;;;6.95;5.18;;;25.00;53.40;;;;;;5091040;28;20392;-85
2021/09/06 12:34:17;;;;;;;8.18;5.90;;;25.10;53.80;;;;;;5057153;28;20400;-86
2021/09/06 12:36:44;;;;;;;7.53;6.00;;;25.20;54.20;;;;;;5057670;28;20039;-85
2021/09/06 12:39:10;;;;;;;8.15;6.07;;;25.40;54.50;;;;;;5057432;28;20020;-85
2021/09/06 12:41:35;;;;;;;7.47;6.07;;;25.50;54.60;;;;;;5057260;28;20167;-86
2021/09/06 12:44:01;;;;;;;8.05;5.90;;;25.60;54.60;;;;;;5057180;28;20035;-85
2021/09/06 12:46:28;;;;;;;6.97;6.00;;;25.70;54.70;;;;;;5074577;28;20033;-84
2021/09/06 12:48:54;;;;;;;7.00;5.68;;;25.80;54.70;;;;;;5056414;28;20032;-86
2021/09/06 12:54:44;;;;;;;6.65;5.28;;;26.10;54.30;;;;;;5074899;28;20122;-87
2021/09/06 12:57:09;;;;;;;8.07;5.55;;;26.20;54.20;;;;;;5075185;28;20040;-86
2021/09/06 13:00:07;;;;;;;7.47;5.18;;;26.30;53.60;;;;;;5057373;28;20028;-87